Time;durP1;ratioP1;P1;durP2;ratioP2;P2;SDS_P1;SDS_P2;PMS_P1;PMS_P2;Temp;Humidity;BMP_temperature;BMP_pressure;BME280_temperature;BME280_humidity;BME280_pressure;Samples;Min_cycle;Max_cycle;Signal;HPM_P1;HPM_P2
2023/01/09 00:00:17;;;;;;;4.28;2.38;;;7.20;99.90;;;;;;5025192;28;20156;-88
2023/01/09 00:02:43;;;;;;;4.55;2.58;;;7.20;99.90;;;;;;5025757;28;20056;-88
2023/01/09 00:05:13;;;;;;;3.72;1.90;;;7.20;99.90;;;;;;5025085;28;20053;-88
2023/01/09 00:07:39;;;;;;;2.90;2.05;;;7.20;99.90;;;;;;5022958;28;20049;-88
2023/01/09 00:10:06;;;;;;;2.92;1.98;;;7.20;99.90;;;;;;5010578;28;20052;-88
2023/01/09 00:12:32;;;;;;;5.80;2.30;;;7.20;99.90;;;;;;5024802;28;20040;-88
2023/01/09 00:14:58;;;;;;;7.18;2.10;;;7.30;99.90;;;;;;5014579;28;20664;-88
2023/01/09 00:17:23;;;;;;;5.95;2.20;;;7.30;99.90;;;;;;5031033;28;20045;-87
2023/01/09 00:19:49;;;;;;;3.72;2.45;;;7.30;99.90;;;;;;5030145;28;20059;-87
2023/01/09 00:22:14;;;;;;;3.25;2.20;;;7.30;99.90;;;;;;5016271;28;20050;-88
2023/01/09 00:24:40;;;;;;;5.07;2.13;;;7.30;99.90;;;;;;5045543;28;20111;-87
2023/01/09 00:27:06;;;;;;;4.65;2.40;;;7.30;99.90;;;;;;5030259;28;20518;-89
2023/01/09 00:29:31;;;;;;;3.83;1.98;;;7.30;99.90;;;;;;5030193;28;20103;-88
2023/01/09 00:31:57;;;;;;;6.38;2.35;;;7.30;99.90;;;;;;5027578;28;20110;-86
2023/01/09 00:34:25;;;;;;;2.65;1.90;;;7.30;99.90;;;;;;5025649;28;20054;-88
2023/01/09 00:36:55;;;;;;;2.80;1.95;;;7.30;99.90;;;;;;5008850;28;20100;-87
2023/01/09 00:39:23;;;;;;;2.50;1.40;;;7.50;99.90;;;;;;5013109;28;20082;-88
2023/01/09 00:41:53;;;;;;;3.10;1.45;;;7.10;99.90;;;;;;5010450;28;20095;-87
2023/01/09 00:44:18;;;;;;;2.20;1.00;;;7.00;99.90;;;;;;5028595;28;20407;-86
2023/01/09 00:46:49;;;;;;;4.10;1.10;;;7.00;99.90;;;;;;5027601;28;20042;-88
2023/01/09 00:49:16;;;;;;;2.17;1.30;;;6.90;99.90;;;;;;5012211;28;20142;-88
2023/01/09 00:51:41;;;;;;;2.65;0.85;;;6.90;99.90;;;;;;5029366;28;20120;-88
2023/01/09 00:54:09;;;;;;;2.78;0.70;;;6.90;99.90;;;;;;5029226;28;20060;-88
2023/01/09 00:56:36;;;;;;;1.98;0.70;;;6.80;99.90;;;;;;5026570;28;20057;-89
2023/01/09 00:59:03;;;;;;;0.90;0.70;;;6.80;99.90;;;;;;5028306;28;20041;-88
2023/01/09 01:01:28;;;;;;;1.33;0.90;;;6.80;99.90;;;;;;5011584;28;20550;-88
2023/01/09 01:03:54;;;;;;;1.63;0.57;;;6.70;99.90;;;;;;5014620;28;20045;-88
2023/01/09 01:09:04;;;;;;;0.70;0.60;;;6.70;99.90;;;;;;5041629;28;20148;-88
2023/01/09 01:11:33;;;;;;;0.90;0.60;;;7.00;99.90;;;;;;5024692;28;20037;-88
2023/01/09 01:14:00;;;;;;;0.88;0.60;;;6.60;99.90;;;;;;5025239;28;20045;-88
2023/01/09 01:16:25;;;;;;;1.38;0.50;;;6.60;99.90;;;;;;5028408;28;20132;-88
2023/01/09 01:18:53;;;;;;;2.40;0.68;;;6.60;99.90;;;;;;5029224;28;20128;-88
2023/01/09 01:21:19;;;;;;;1.00;0.50;;;6.60;99.90;;;;;;5027115;28;20041;-88
2023/01/09 01:23:45;;;;;;;2.00;0.73;;;6.50;99.90;;;;;;5027867;28;20115;-87
2023/01/09 01:26:13;;;;;;;1.05;0.70;;;6.50;99.90;;;;;;5009430;28;20148;-88
2023/01/09 01:28:39;;;;;;;1.00;0.68;;;6.50;99.90;;;;;;5024694;28;20052;-87
2023/01/09 01:31:05;;;;;;;1.33;0.90;;;6.40;99.90;;;;;;5028609;28;20041;-88
2023/01/09 01:33:33;;;;;;;0.80;0.75;;;6.40;99.90;;;;;;5011346;28;20575;-88
2023/01/09 01:36:07;;;;;;;3.42;1.20;;;6.40;99.90;;;;;;5026881;28;20383;-88
2023/01/09 01:38:34;;;;;;;2.75;1.23;;;6.30;99.90;;;;;;5026946;28;20046;-88
2023/01/09 01:41:01;;;;;;;1.42;1.10;;;6.30;99.90;;;;;;5026441;28;20128;-88
2023/01/09 01:43:27;;;;;;;2.60;1.40;;;6.30;99.90;;;;;;5026668;28;20128;-88
2023/01/09 01:45:53;;;;;;;2.53;1.25;;;6.30;99.90;;;;;;5007742;28;20523;-88
2023/01/09 01:48:28;;;;;;;3.17;1.40;;;6.30;99.90;;;;;;5018028;28;20033;-88
2023/01/09 01:51:02;;;;;;;2.17;1.50;;;6.30;99.90;;;;;;5028063;28;20045;-87
2023/01/09 01:53:32;;;;;;;3.42;1.55;;;6.20;99.90;;;;;;5026391;28;20045;-88
2023/01/09 01:56:04;;;;;;;3.63;1.88;;;6.20;99.90;;;;;;5011477;28;20041;-88
2023/01/09 01:58:30;;;;;;;3.90;1.80;;;6.60;99.90;;;;;;5022407;28;20440;-87
2023/01/09 02:00:56;;;;;;;3.85;1.88;;;6.60;99.90;;;;;;5026304;28;20049;-88
2023/01/09 02:03:26;;;;;;;3.88;2.17;;;6.40;99.90;;;;;;5027285;28;20041;-88
2023/01/09 02:05:55;;;;;;;2.03;1.80;;;6.40;99.90;;;;;;5027433;28;20077;-88
2023/01/09 02:08:21;;;;;;;4.00;2.00;;;6.50;99.90;;;;;;5025278;28;20150;-87
2023/01/09 02:10:46;;;;;;;3.25;2.10;;;6.50;99.90;;;;;;5028125;28;20049;-87
2023/01/09 02:13:15;;;;;;;4.57;2.60;;;6.60;99.90;;;;;;5025281;28;20434;-87
2023/01/09 02:15:49;;;;;;;4.35;2.30;;;6.60;99.90;;;;;;5027205;28;20049;-87
2023/01/09 02:18:32;;;;;;;6.57;2.30;;;6.70;99.90;;;;;;5026689;28;20161;-87
2023/01/09 02:21:21;;;;;;;3.88;2.42;;;6.60;99.90;;;;;;5026196;28;20133;-87
2023/01/09 02:24:30;;;;;;;3.88;1.92;;;6.60;99.90;;;;;;5026760;28;20053;-88
2023/01/09 02:27:39;;;;;;;4.50;2.10;;;6.60;99.90;;;;;;5017539;28;20549;-88
2023/01/09 02:30:31;;;;;;;3.70;2.50;;;6.50;99.90;;;;;;5022720;28;20045;-88
2023/01/09 02:32:59;;;;;;;3.93;2.00;;;6.40;99.90;;;;;;5022991;28;20211;-88
2023/01/09 02:35:34;;;;;;;4.97;1.88;;;6.40;99.90;;;;;;5007194;28;20049;-87
2023/01/09 02:38:29;;;;;;;4.82;2.35;;;6.30;99.90;;;;;;5012799;28;20404;-88
2023/01/09 02:41:05;;;;;;;7.50;2.78;;;6.30;99.90;;;;;;5018930;28;20420;-87
2023/01/09 02:43:31;;;;;;;4.55;2.40;;;6.20;99.90;;;;;;5010313;28;20776;-87
2023/01/09 02:45:57;;;;;;;6.13;2.30;;;6.10;99.90;;;;;;5010015;28;20041;-87
2023/01/09 02:48:22;;;;;;;3.95;1.98;;;6.10;99.90;;;;;;5008254;28;20109;-88
2023/01/09 02:51:06;;;;;;;6.00;2.33;;;6.10;99.90;;;;;;5027255;28;20064;-88
2023/01/09 02:53:58;;;;;;;4.70;2.58;;;6.00;99.90;;;;;;5026486;28;20064;-87
2023/01/09 02:56:45;;;;;;;4.07;2.20;;;6.00;99.90;;;;;;5025640;28;20049;-87
2023/01/09 02:59:14;;;;;;;4.28;2.20;;;5.90;99.90;;;;;;5007966;28;20053;-88
2023/01/09 03:01:46;;;;;;;3.13;2.00;;;6.00;99.90;;;;;;5024564;28;20484;-88
2023/01/09 03:04:25;;;;;;;6.88;2.28;;;5.80;99.90;;;;;;5007838;28;20056;-88
2023/01/09 03:07:07;;;;;;;4.10;2.30;;;5.70;99.90;;;;;;5009132;28;20941;-87
2023/01/09 03:09:37;;;;;;;5.72;2.35;;;5.70;99.90;;;;;;5023107;28;20132;-88
2023/01/09 03:12:23;;;;;;;5.35;2.47;;;5.70;99.90;;;;;;5008107;28;20103;-87
2023/01/09 03:14:52;;;;;;;5.75;2.60;;;5.70;99.90;;;;;;5004606;28;20042;-87
2023/01/09 03:17:41;;;;;;;4.15;2.50;;;5.60;99.90;;;;;;5023940;28;20042;-87
2023/01/09 03:20:12;;;;;;;2.97;2.30;;;5.60;99.90;;;;;;5006350;28;20053;-87
2023/01/09 03:22:55;;;;;;;5.70;2.42;;;5.50;99.90;;;;;;5016644;28;20041;-86
2023/01/09 03:25:22;;;;;;;7.60;3.00;;;5.50;99.90;;;;;;5025724;28;20045;-87
2023/01/09 03:27:51;;;;;;;6.80;2.67;;;5.40;99.90;;;;;;5024777;28;20096;-88
2023/01/09 03:30:17;;;;;;;4.32;2.67;;;5.40;99.90;;;;;;5025079;28;20777;-86
2023/01/09 03:32:42;;;;;;;4.75;2.70;;;5.30;99.90;;;;;;5025799;28;20084;-87
2023/01/09 03:35:08;;;;;;;6.05;2.42;;;5.20;99.90;;;;;;5042148;28;20393;-88
2023/01/09 03:37:34;;;;;;;5.10;2.83;;;5.20;99.90;;;;;;5015055;28;20140;-87
2023/01/09 03:39:59;;;;;;;5.43;2.85;;;5.10;99.90;;;;;;5015140;28;20121;-88
2023/01/09 03:42:25;;;;;;;6.47;2.90;;;5.10;99.90;;;;;;5007640;28;20100;-87
2023/01/09 03:44:51;;;;;;;7.15;2.70;;;5.00;99.90;;;;;;5010451;28;20052;-87
2023/01/09 03:47:18;;;;;;;5.72;3.00;;;5.00;99.90;;;;;;5026784;28;20064;-87
2023/01/09 03:49:44;;;;;;;2.90;2.50;;;4.90;99.90;;;;;;5031123;28;20057;-88
2023/01/09 03:52:12;;;;;;;5.95;3.10;;;4.90;99.90;;;;;;5018069;28;20079;-88
2023/01/09 03:54:39;;;;;;;8.55;3.40;;;4.90;99.90;;;;;;5012681;28;20056;-88
2023/01/09 03:57:04;;;;;;;6.55;3.00;;;4.80;99.90;;;;;;5027827;28;20399;-88
2023/01/09 03:59:30;;;;;;;4.28;2.85;;;4.80;99.90;;;;;;5029099;28;20060;-88
2023/01/09 04:01:55;;;;;;;6.60;3.58;;;4.70;99.90;;;;;;5026849;28;20514;-87
2023/01/09 04:04:21;;;;;;;7.35;3.65;;;5.20;99.90;;;;;;5013195;28;20060;-87
2023/01/09 04:06:48;;;;;;;5.50;3.30;;;4.60;99.90;;;;;;5028253;28;20143;-88
2023/01/09 04:09:13;;;;;;;4.50;3.30;;;4.60;99.90;;;;;;5020485;28;20404;-88
2023/01/09 04:11:39;;;;;;;4.68;3.35;;;4.60;99.90;;;;;;5037769;28;20053;-88
2023/01/09 04:14:13;;;;;;;6.20;3.67;;;4.60;99.90;;;;;;5010717;28;20384;-87
2023/01/09 04:16:39;;;;;;;7.75;4.05;;;4.60;99.90;;;;;;4993422;28;20042;-87
2023/01/09 04:19:15;;;;;;;10.02;4.20;;;4.60;99.90;;;;;;5027127;28;20045;-86
2023/01/09 04:21:44;;;;;;;6.43;4.55;;;4.20;99.90;;;;;;5029583;28;20060;-86
2023/01/09 04:24:10;;;;;;;8.57;5.60;;;4.60;99.90;;;;;;5009715;28;20377;-86
2023/01/09 04:26:41;;;;;;;8.63;5.38;;;4.70;99.90;;;;;;5027341;28;20037;-86
2023/01/09 04:29:07;;;;;;;9.67;6.13;;;4.60;99.90;;;;;;5011893;28;20049;-86
2023/01/09 04:31:32;;;;;;;12.05;6.35;;;4.70;99.90;;;;;;5011144;28;20064;-87
2023/01/09 04:34:10;;;;;;;14.45;6.65;;;4.60;99.90;;;;;;5029746;28;20131;-87
2023/01/09 04:36:45;;;;;;;14.68;6.82;;;4.10;99.90;;;;;;5012642;28;20092;-87
2023/01/09 04:39:10;;;;;;;9.75;6.13;;;4.70;99.90;;;;;;5013996;28;20054;-87
2023/01/09 04:41:49;;;;;;;11.43;6.53;;;4.70;99.90;;;;;;5012655;28;20429;-86
2023/01/09 04:44:31;;;;;;;12.85;7.53;;;4.50;99.90;;;;;;5030760;28;20041;-87
2023/01/09 04:46:59;;;;;;;11.63;8.07;;;4.50;99.90;;;;;;5028051;28;20503;-87
2023/01/09 04:49:24;;;;;;;12.82;8.95;;;5.00;99.90;;;;;;5014353;28;20049;-87
2023/01/09 04:52:01;;;;;;;14.77;9.68;;;4.50;99.90;;;;;;5009172;28;20041;-87
2023/01/09 04:54:29;;;;;;;14.50;9.30;;;4.40;99.90;;;;;;5026569;28;20049;-87
2023/01/09 04:57:04;;;;;;;17.38;9.52;;;4.50;99.90;;;;;;5028021;28;20126;-87
2023/01/09 04:59:37;;;;;;;15.27;9.80;;;5.00;99.90;;;;;;5009926;28;20041;-87
2023/01/09 05:02:05;;;;;;;;;;;4.50;99.90;;;;;;5010397;28;20869;-86
2023/01/09 05:04:31;;;;;;;16.08;9.95;;;4.50;99.90;;;;;;5013452;28;19938;-87
2023/01/09 05:07:00;;;;;;;18.35;11.13;;;4.60;99.90;;;;;;5026077;28;20045;-86
2023/01/09 05:09:25;;;;;;;19.45;11.27;;;4.60;99.90;;;;;;5011356;28;20057;-87
2023/01/09 05:11:55;;;;;;;19.42;11.63;;;4.60;99.90;;;;;;5028070;28;20045;-87
2023/01/09 05:15:05;;;;;;;18.23;12.82;;;4.60;99.90;;;;;;5026842;28;20128;-87
2023/01/09 05:17:30;;;;;;;17.90;12.05;;;4.70;99.90;;;;;;5027702;28;20141;-87
2023/01/09 05:19:55;;;;;;;20.13;12.30;;;4.80;99.90;;;;;;5027704;28;20049;-87
2023/01/09 05:22:21;;;;;;;19.85;13.27;;;4.80;99.90;;;;;;5027421;28;20052;-87
2023/01/09 05:24:47;;;;;;;18.73;11.82;;;4.90;99.90;;;;;;5027825;28;20038;-87
2023/01/09 05:27:12;;;;;;;20.23;11.88;;;4.90;99.90;;;;;;5028916;28;20041;-86
2023/01/09 05:29:38;;;;;;;23.25;12.02;;;5.00;99.90;;;;;;5027161;28;20049;-86
2023/01/09 05:32:03;;;;;;;21.25;12.35;;;5.00;99.90;;;;;;5010722;28;20100;-87
2023/01/09 05:34:29;;;;;;;20.48;11.57;;;5.00;99.90;;;;;;5026991;28;20102;-86
2023/01/09 05:36:55;;;;;;;16.20;10.95;;;5.10;99.90;;;;;;5026659;28;20496;-86
2023/01/09 05:39:20;;;;;;;15.93;11.80;;;5.00;99.90;;;;;;5023540;28;20369;-86
2023/01/09 05:41:46;;;;;;;21.20;11.15;;;5.20;99.90;;;;;;5023697;28;20057;-86
2023/01/09 05:44:12;;;;;;;17.88;10.77;;;5.10;99.90;;;;;;5017366;28;20052;-87
2023/01/09 05:46:37;;;;;;;16.70;11.10;;;5.10;99.90;;;;;;5008960;28;20053;-87
2023/01/09 05:49:03;;;;;;;13.75;10.10;;;5.20;99.90;;;;;;5027309;28;20091;-87
2023/01/09 05:51:30;;;;;;;17.38;10.63;;;5.20;99.90;;;;;;5010067;28;20092;-87
2023/01/09 05:53:57;;;;;;;17.10;11.07;;;5.20;99.90;;;;;;5026372;28;20057;-87
2023/01/09 05:56:23;;;;;;;19.42;10.02;;;5.20;99.90;;;;;;5011063;28;20058;-86
2023/01/09 05:58:48;;;;;;;16.50;10.13;;;5.20;99.90;;;;;;5027001;28;20114;-87
2023/01/09 06:01:14;;;;;;;16.88;10.20;;;5.20;99.90;;;;;;5008459;28;20056;-86
2023/01/09 06:03:41;;;;;;;17.20;10.63;;;5.30;99.90;;;;;;5023461;28;20041;-87
2023/01/09 06:06:06;;;;;;;17.42;10.13;;;5.30;99.90;;;;;;5011574;28;20049;-86
2023/01/09 06:08:32;;;;;;;15.45;10.00;;;5.30;99.90;;;;;;5022839;28;20049;-86
2023/01/09 06:10:59;;;;;;;15.68;11.45;;;5.30;99.90;;;;;;5015841;28;20064;-86
2023/01/09 06:13:28;;;;;;;15.98;9.82;;;5.30;99.90;;;;;;5027175;28;20045;-86
2023/01/09 06:15:54;;;;;;;14.18;9.65;;;5.30;99.90;;;;;;5010793;28;20444;-85
2023/01/09 06:18:19;;;;;;;15.82;10.18;;;5.30;99.90;;;;;;5024569;28;20191;-86
2023/01/09 06:20:45;;;;;;;14.30;9.10;;;5.60;99.90;;;;;;5008492;28;20049;-89
2023/01/09 06:23:11;;;;;;;14.65;9.15;;;5.30;99.90;;;;;;5004082;28;20057;-87
2023/01/09 06:25:36;;;;;;;16.55;10.52;;;5.30;99.90;;;;;;5023506;28;20052;-87
2023/01/09 06:28:02;;;;;;;16.20;9.85;;;5.30;99.90;;;;;;5026484;28;20114;-87
2023/01/09 06:30:37;;;;;;;14.00;8.73;;;5.30;99.90;;;;;;5027756;28;20384;-85
2023/01/09 06:33:02;;;;;;;14.68;8.80;;;5.30;99.90;;;;;;5022908;28;20111;-87
2023/01/09 06:35:28;;;;;;;14.88;8.32;;;5.30;99.90;;;;;;5024169;28;20429;-86
2023/01/09 06:37:54;;;;;;;11.68;7.57;;;5.30;99.90;;;;;;5010811;28;20045;-86
2023/01/09 06:40:20;;;;;;;14.07;8.40;;;5.30;99.90;;;;;;5010473;28;20111;-87
2023/01/09 06:42:46;;;;;;;10.82;7.13;;;5.30;99.90;;;;;;5023161;28;20120;-86
2023/01/09 06:45:13;;;;;;;10.70;7.90;;;5.30;99.90;;;;;;5008175;28;20093;-86
2023/01/09 06:47:39;;;;;;;12.15;7.53;;;5.30;99.90;;;;;;5006766;28;20474;-87
2023/01/09 06:50:05;;;;;;;12.15;7.82;;;5.20;99.90;;;;;;5006980;28;20050;-86
2023/01/09 06:52:31;;;;;;;14.98;10.70;;;5.20;99.90;;;;;;5007499;28;20049;-86
2023/01/09 06:54:57;;;;;;;9.65;6.82;;;5.60;99.90;;;;;;5022880;28;20045;-87
2023/01/09 06:57:22;;;;;;;8.20;5.93;;;5.10;99.90;;;;;;5025953;28;20053;-87
2023/01/09 06:59:48;;;;;;;10.07;6.18;;;5.00;99.90;;;;;;5013478;28;20176;-87
2023/01/09 07:02:21;;;;;;;9.60;6.07;;;4.90;99.90;;;;;;4991326;28;20502;-87
2023/01/09 07:04:46;;;;;;;9.05;5.25;;;5.00;99.90;;;;;;4997747;28;20045;-86
2023/01/09 07:07:12;;;;;;;8.43;6.00;;;5.00;99.90;;;;;;4990015;28;20578;-87
2023/01/09 07:09:38;;;;;;;8.13;5.50;;;5.80;99.90;;;;;;4992377;28;20045;-87
2023/01/09 07:12:04;;;;;;;6.65;5.47;;;5.10;99.90;;;;;;5026033;28;20068;-87
2023/01/09 07:14:30;;;;;;;9.40;6.40;;;5.00;99.90;;;;;;5025643;28;20129;-88
2023/01/09 07:16:56;;;;;;;11.63;5.70;;;5.00;99.90;;;;;;5025445;28;20050;-87
2023/01/09 07:19:21;;;;;;;7.32;5.35;;;5.10;99.90;;;;;;5012196;28;20488;-87
2023/01/09 07:21:47;;;;;;;9.43;5.40;;;5.10;99.90;;;;;;5013372;28;20144;-87
2023/01/09 07:24:13;;;;;;;9.90;5.88;;;5.10;99.90;;;;;;5031191;28;20045;-85
2023/01/09 07:26:38;;;;;;;12.32;6.40;;;5.10;99.90;;;;;;5030374;28;20049;-85
2023/01/09 07:29:04;;;;;;;10.43;5.80;;;5.10;99.90;;;;;;5026861;28;20037;-85
2023/01/09 07:31:29;;;;;;;8.82;6.00;;;5.10;99.90;;;;;;5019276;28;20128;-85
2023/01/09 07:33:55;;;;;;;9.52;6.10;;;5.10;99.90;;;;;;5030438;28;20096;-85
2023/01/09 07:36:21;;;;;;;10.55;7.40;;;5.10;99.90;;;;;;5031511;28;20069;-85
2023/01/09 07:38:49;;;;;;;11.02;5.90;;;5.50;99.90;;;;;;5031411;28;20041;-85
2023/01/09 07:41:14;;;;;;;8.98;6.18;;;5.10;99.90;;;;;;5029772;28;20056;-86
2023/01/09 07:43:40;;;;;;;7.75;4.93;;;5.10;99.90;;;;;;5031392;28;20065;-86
2023/01/09 07:46:06;;;;;;;6.25;4.97;;;5.10;99.90;;;;;;5028857;28;20523;-86
2023/01/09 07:48:32;;;;;;;7.55;5.03;;;5.10;99.90;;;;;;5030224;28;20830;-86
2023/01/09 07:50:58;;;;;;;8.70;5.18;;;5.10;99.90;;;;;;5029658;28;20056;-89
2023/01/09 07:53:24;;;;;;;6.88;4.93;;;5.10;99.90;;;;;;5028856;28;20038;-88
2023/01/09 07:55:49;;;;;;;7.60;4.63;;;5.10;99.90;;;;;;5030795;28;20049;-89
2023/01/09 07:58:15;;;;;;;8.48;5.00;;;5.10;99.90;;;;;;5030603;28;20049;-88
2023/01/09 08:00:41;;;;;;;12.15;5.97;;;5.10;99.90;;;;;;5029547;28;20042;-87
2023/01/09 08:03:06;;;;;;;10.95;4.78;;;5.10;99.90;;;;;;5030495;28;20046;-88
2023/01/09 08:05:32;;;;;;;7.65;4.40;;;5.00;99.90;;;;;;5030361;28;20132;-87
2023/01/09 08:07:58;;;;;;;8.35;4.40;;;5.00;99.90;;;;;;5013227;28;20188;-87
2023/01/09 08:10:23;;;;;;;7.28;4.57;;;5.00;99.90;;;;;;5009670;28;20046;-85
2023/01/09 08:12:49;;;;;;;9.18;3.85;;;5.00;99.90;;;;;;5018526;28;20392;-87
2023/01/09 08:15:16;;;;;;;8.02;3.97;;;5.10;99.90;;;;;;5011901;28;20041;-88
2023/01/09 08:17:43;;;;;;;8.82;4.20;;;5.10;99.90;;;;;;5024442;28;20034;-88
2023/01/09 08:20:10;;;;;;;10.00;4.70;;;5.10;99.90;;;;;;5029561;28;20589;-87
2023/01/09 08:22:37;;;;;;;8.23;4.13;;;5.20;99.90;;;;;;5012709;28;20053;-86
2023/01/09 08:25:03;;;;;;;7.43;3.72;;;5.80;99.90;;;;;;5012422;28;20049;-87
2023/01/09 08:27:28;;;;;;;9.50;4.30;;;5.30;99.90;;;;;;5024050;28;20048;-88
2023/01/09 08:29:54;;;;;;;8.63;3.90;;;5.30;99.90;;;;;;5030828;28;20053;-90
2023/01/09 08:32:19;;;;;;;13.38;4.68;;;5.30;99.90;;;;;;5015295;28;20161;-89
2023/01/09 08:34:45;;;;;;;10.30;4.35;;;5.50;99.90;;;;;;5011200;28;20050;-90
2023/01/09 08:37:11;;;;;;;8.10;3.67;;;5.30;99.90;;;;;;5010621;28;20427;-88
2023/01/09 08:39:36;;;;;;;9.82;4.10;;;5.40;99.90;;;;;;5009387;28;20046;-87
2023/01/09 08:47:33;;;;;;;7.38;4.10;;;5.50;99.90;;;;;;5029015;28;20065;-88
2023/01/09 08:49:59;;;;;;;9.30;4.05;;;5.50;99.90;;;;;;5028513;28;20092;-87
2023/01/09 08:52:29;;;;;;;12.13;4.35;;;5.50;99.90;;;;;;5028604;28;20045;-88
2023/01/09 08:54:55;;;;;;;10.65;4.47;;;5.50;99.90;;;;;;5028221;28;20056;-87
2023/01/09 08:57:21;;;;;;;7.88;3.80;;;6.10;99.90;;;;;;5028040;28;20111;-87
2023/01/09 08:59:47;;;;;;;9.40;4.00;;;5.60;99.90;;;;;;5026551;28;20053;-88
2023/01/09 09:02:12;;;;;;;8.70;3.72;;;5.60;99.90;;;;;;5012917;28;20092;-88
2023/01/09 09:04:38;;;;;;;9.95;4.63;;;5.70;99.90;;;;;;5027904;28;20049;-88
2023/01/09 09:07:03;;;;;;;7.35;3.88;;;5.70;99.90;;;;;;5011933;28;20107;-87
2023/01/09 09:09:29;;;;;;;6.82;3.60;;;5.80;99.90;;;;;;5027619;28;20042;-88
2023/01/09 09:11:54;;;;;;;17.77;8.13;;;6.50;99.90;;;;;;5028806;28;20399;-87
2023/01/09 09:17:04;;;;;;;6.63;3.83;;;5.80;99.90;;;;;;5029776;28;20053;-89
2023/01/09 09:19:30;;;;;;;9.20;4.07;;;5.90;99.90;;;;;;5029272;28;20060;-90
2023/01/09 09:21:55;;;;;;;6.38;3.50;;;5.90;99.90;;;;;;5029742;28;20509;-90
2023/01/09 09:24:21;;;;;;;6.35;3.75;;;6.00;99.90;;;;;;5015854;28;20068;-90
2023/01/09 09:26:46;;;;;;;9.18;4.10;;;5.90;99.90;;;;;;5009328;28;20077;-89
2023/01/09 09:29:12;;;;;;;8.38;3.63;;;6.00;99.90;;;;;;5011000;28;20049;-90
2023/01/09 09:31:38;;;;;;;8.63;4.00;;;6.00;99.90;;;;;;5017219;28;20063;-90
2023/01/09 09:34:06;;;;;;;9.32;3.63;;;6.00;99.90;;;;;;5029888;28;20053;-90
2023/01/09 09:36:33;;;;;;;8.93;3.63;;;6.00;99.90;;;;;;5038485;28;20064;-88
2023/01/09 09:38:58;;;;;;;9.23;3.83;;;6.00;99.90;;;;;;5010481;28;20088;-89
2023/01/09 09:44:52;;;;;;;8.90;3.50;;;6.10;99.90;;;;;;5015606;28;20052;-89
2023/01/09 09:47:31;;;;;;;12.23;4.30;;;6.20;99.90;;;;;;5027179;28;20061;-89
2023/01/09 09:50:22;;;;;;;8.90;3.97;;;6.30;99.90;;;;;;5029628;28;20053;-90
2023/01/09 09:53:09;;;;;;;9.57;3.95;;;6.30;99.90;;;;;;5028379;28;20095;-90
2023/01/09 09:55:40;;;;;;;8.73;3.40;;;6.40;99.90;;;;;;5021395;28;20136;-90
2023/01/09 09:58:20;;;;;;;7.50;3.70;;;6.30;99.90;;;;;;5029887;28;20085;-89
2023/01/09 10:00:47;;;;;;;8.45;3.70;;;6.40;99.90;;;;;;5013801;28;20033;-91
2023/01/09 10:03:34;;;;;;;9.50;3.63;;;6.40;99.90;;;;;;5029679;28;20132;-91
2023/01/09 10:06:14;;;;;;;10.50;3.30;;;6.50;99.90;;;;;;5013099;28;20057;-91
2023/01/09 10:08:55;;;;;;;8.45;3.67;;;6.50;99.90;;;;;;5029680;28;20100;-91
2023/01/09 10:11:31;;;;;;;7.28;3.63;;;6.60;99.90;;;;;;5015940;28;20050;-90
2023/01/09 10:14:06;;;;;;;9.10;4.32;;;6.60;99.90;;;;;;5010040;28;20045;-91
2023/01/09 10:16:39;;;;;;;7.30;3.28;;;6.60;99.90;;;;;;5009257;28;20045;-91
2023/01/09 10:19:42;;;;;;;6.03;3.22;;;6.70;99.90;;;;;;5009805;28;20053;-92
2023/01/09 10:22:34;;;;;;;8.55;3.13;;;6.70;99.90;;;;;;5009483;28;20083;-91
2023/01/09 10:25:23;;;;;;;10.70;3.85;;;6.70;99.90;;;;;;5007335;28;20041;-89
2023/01/09 10:28:11;;;;;;;8.70;3.42;;;6.70;99.90;;;;;;5007345;28;20040;-90
2023/01/09 10:30:49;;;;;;;5.40;3.10;;;6.70;99.90;;;;;;5008537;28;20579;-90
2023/01/09 10:33:35;;;;;;;7.85;3.25;;;6.80;99.90;;;;;;4992661;28;20064;-88
2023/01/09 10:36:20;;;;;;;10.43;2.97;;;6.80;99.90;;;;;;5008648;28;20100;-91
2023/01/09 10:38:52;;;;;;;11.13;3.60;;;6.80;99.90;;;;;;5008396;28;20091;-91
2023/01/09 10:41:30;;;;;;;7.10;3.33;;;6.80;99.90;;;;;;5008275;28;20061;-90
2023/01/09 10:43:59;;;;;;;5.78;3.63;;;6.80;99.90;;;;;;5008832;28;20449;-90
2023/01/09 10:46:29;;;;;;;10.30;3.25;;;6.80;99.90;;;;;;5009019;28;20108;-91
2023/01/09 10:48:59;;;;;;;7.63;3.28;;;6.80;99.90;;;;;;5009057;28;20054;-91
2023/01/09 10:51:50;;;;;;;8.73;3.83;;;6.80;99.90;;;;;;5008988;28;20136;-91
2023/01/09 10:54:20;;;;;;;5.07;2.97;;;6.80;99.90;;;;;;4992757;28;20053;-91
2023/01/09 10:56:59;;;;;;;6.07;3.47;;;6.90;99.90;;;;;;5008549;28;20045;-91
2023/01/09 10:59:25;;;;;;;5.43;3.30;;;7.30;99.90;;;;;;5013908;28;20593;-92
2023/01/09 11:01:53;;;;;;;4.80;3.05;;;6.80;99.90;;;;;;5008612;28;20423;-92
2023/01/09 11:04:28;;;;;;;4.78;3.22;;;6.80;99.90;;;;;;5010303;28;20042;-90
2023/01/09 11:07:10;;;;;;;7.97;3.35;;;6.90;99.90;;;;;;5010111;28;20460;-91
2023/01/09 11:10:00;;;;;;;5.50;3.28;;;7.00;99.90;;;;;;5024833;28;20039;-92
2023/01/09 11:12:29;;;;;;;6.07;3.72;;;7.00;99.90;;;;;;5025847;28;20037;-92
2023/01/09 11:14:54;;;;;;;10.10;5.28;;;7.00;99.90;;;;;;5023563;28;20041;-91
2023/01/09 11:17:29;;;;;;;9.25;4.18;;;7.00;99.90;;;;;;5026174;28;20065;-91
2023/01/09 11:20:04;;;;;;;12.23;8.32;;;7.00;99.90;;;;;;5001213;28;20140;-91
2023/01/09 11:22:42;;;;;;;9.85;5.88;;;7.00;99.90;;;;;;5023931;28;20131;-90
2023/01/09 11:25:12;;;;;;;10.35;4.78;;;7.00;99.90;;;;;;5012465;28;20045;-90
2023/01/09 11:27:37;;;;;;;8.70;4.50;;;7.00;99.90;;;;;;5026755;28;20052;-91
2023/01/09 11:30:18;;;;;;;5.85;4.60;;;6.90;99.90;;;;;;5027754;28;20045;-90
2023/01/09 11:32:45;;;;;;;8.25;4.50;;;6.90;99.90;;;;;;5026978;28;20053;-91
2023/01/09 11:35:37;;;;;;;8.15;5.30;;;7.00;99.90;;;;;;5028444;28;20042;-90
2023/01/09 11:38:21;;;;;;;10.17;5.60;;;7.30;99.90;;;;;;5027561;28;20053;-90
2023/01/09 11:40:57;;;;;;;8.48;5.72;;;7.00;99.90;;;;;;5023714;28;20037;-90
2023/01/09 11:43:33;;;;;;;8.57;5.43;;;7.00;99.90;;;;;;5008814;28;20046;-91
2023/01/09 11:46:02;;;;;;;7.35;5.40;;;7.50;99.90;;;;;;4997976;28;20200;-91
2023/01/09 11:48:29;;;;;;;7.55;5.43;;;7.00;99.90;;;;;;5012097;28;20088;-91
2023/01/09 11:50:57;;;;;;;10.55;5.45;;;7.00;99.90;;;;;;5011759;28;20050;-91
2023/01/09 11:53:24;;;;;;;8.55;5.10;;;7.50;99.90;;;;;;5012061;28;20500;-92
2023/01/09 11:56:05;;;;;;;7.05;5.50;;;7.00;99.90;;;;;;5008540;28;20046;-91
2023/01/09 11:58:33;;;;;;;8.95;5.72;;;7.20;99.90;;;;;;5007271;28;20050;-90
2023/01/09 12:01:05;;;;;;;10.40;6.30;;;7.00;99.90;;;;;;4998790;28;20109;-90
2023/01/09 12:03:50;;;;;;;9.98;5.88;;;7.00;99.90;;;;;;5010509;28;20049;-90
2023/01/09 12:06:47;;;;;;;8.55;5.97;;;7.00;99.90;;;;;;5011220;28;20084;-88
2023/01/09 12:09:37;;;;;;;7.88;5.80;;;7.60;99.90;;;;;;5029748;28;20058;-90
2023/01/09 12:12:41;;;;;;;11.00;6.15;;;7.00;99.90;;;;;;5006037;28;20184;-90
2023/01/09 12:15:22;;;;;;;10.68;6.07;;;7.00;99.90;;;;;;5012580;28;20054;-90
2023/01/09 12:18:04;;;;;;;7.53;6.20;;;7.00;99.90;;;;;;5013103;28;20064;-90
2023/01/09 12:20:30;;;;;;;9.77;6.35;;;7.10;99.90;;;;;;5011466;28;20228;-91
2023/01/09 12:23:35;;;;;;;8.98;6.45;;;7.10;99.90;;;;;;5017997;28;20132;-91
2023/01/09 12:26:22;;;;;;;10.98;6.60;;;7.10;99.90;;;;;;5014048;28;20060;-91
2023/01/09 12:28:57;;;;;;;10.18;6.72;;;7.10;99.90;;;;;;5010478;28;20049;-90
2023/01/09 12:32:02;;;;;;;9.98;7.05;;;7.20;99.90;;;;;;5010605;28;20092;-91
2023/01/09 12:34:44;;;;;;;12.32;7.40;;;7.20;99.90;;;;;;5030394;28;20112;-90
2023/01/09 12:37:44;;;;;;;12.05;6.65;;;7.20;99.90;;;;;;5031881;28;20089;-90
2023/01/09 12:40:20;;;;;;;10.82;7.25;;;7.20;99.90;;;;;;5014625;28;20090;-90
2023/01/09 12:42:45;;;;;;;9.65;6.82;;;7.30;99.90;;;;;;5013473;28;20052;-91
2023/01/09 12:45:32;;;;;;;11.80;7.68;;;7.30;99.90;;;;;;5010104;28;20049;-91
2023/01/09 12:48:29;;;;;;;12.50;7.10;;;7.30;99.90;;;;;;4994591;28;20168;-90
2023/01/09 12:51:13;;;;;;;13.60;7.85;;;7.30;99.90;;;;;;5022413;28;20080;-90
2023/01/09 12:54:04;;;;;;;13.27;7.53;;;7.40;99.90;;;;;;5004737;28;20060;-90
2023/01/09 12:56:37;;;;;;;11.02;7.60;;;7.40;99.90;;;;;;4993795;28;20230;-91
2023/01/09 12:59:06;;;;;;;11.57;7.75;;;7.40;99.90;;;;;;4994809;28;20048;-90
2023/01/09 13:01:40;;;;;;;11.20;7.93;;;7.40;99.90;;;;;;5005016;28;20137;-91
2023/01/09 13:04:29;;;;;;;10.25;7.68;;;7.40;99.90;;;;;;5023392;28;20372;-90
2023/01/09 13:06:59;;;;;;;10.32;7.55;;;7.40;99.90;;;;;;5010553;28;20412;-91
2023/01/09 13:09:54;;;;;;;12.18;8.43;;;7.40;99.90;;;;;;5009705;28;20038;-90
2023/01/09 13:12:23;;;;;;;11.05;7.82;;;7.40;99.90;;;;;;5010055;28;20131;-90
2023/01/09 13:14:59;;;;;;;13.25;8.18;;;7.40;99.90;;;;;;5013982;28;20050;-89
2023/01/09 13:17:50;;;;;;;10.73;7.75;;;7.40;99.90;;;;;;5030223;28;20128;-90
2023/01/09 13:20:20;;;;;;;15.52;8.32;;;7.40;99.90;;;;;;5013137;28;20099;-90
2023/01/09 13:22:49;;;;;;;11.20;8.38;;;7.40;99.90;;;;;;5013658;28;20045;-91
2023/01/09 13:25:30;;;;;;;11.77;8.05;;;7.70;99.90;;;;;;5014840;28;20124;-90
2023/01/09 13:28:00;;;;;;;11.80;8.18;;;7.40;99.90;;;;;;5012349;28;20055;-89